Weather at KORČULA Vela Luka Seaplane Terminal [CLOSED]

Public forecast

Using degrees Celsius for public forecast. Weather courtesy of forecast.io.

Closest aviation weather report (METAR) to KORČULA Vela Luka Seaplane Terminal

Closest report is Brač Airport, 19.7 nm (36.4 km) N.

2024/05/24 06:30 (retrieved 20 minutes ago)

LDSB 240630Z VRB03KT 9999 FEW050 18/09 Q1019

Closest aviation forecast (TAF) to KORČULA Vela Luka Seaplane Terminal

Closest forecast is Brač Airport, 19.7 nm (36.4 km) N.

2024/05/24 06:27 (retrieved 23 minutes ago)

TAF LDSB 240525Z 2406/2506 29005KT CAVOK TX24/2412Z TN12/2503Z BECMG 2410/2412 24009KT BECMG 2412/2414 30010KT BECMG 2422/2500 VRB02KT